createdAt,value
2018-06-15T00:00:23.468Z,0
2018-06-15T00:09:07.873Z,0
2018-06-15T00:10:08.477Z,0
2018-06-15T00:11:09.083Z,0
2018-06-15T00:12:09.691Z,0
2018-06-15T00:18:12.094Z,0
2018-06-15T00:19:12.668Z,0
2018-06-15T00:20:13.242Z,0
2018-06-15T00:21:13.817Z,0
2018-06-15T00:22:14.401Z,0
2018-06-15T00:23:14.977Z,0
2018-06-15T00:24:15.551Z,0
2018-06-15T00:25:16.124Z,0
2018-06-15T00:26:16.698Z,0
2018-06-15T00:27:17.274Z,0
2018-06-15T00:28:17.849Z,0
2018-06-15T00:29:18.423Z,0
2018-06-15T00:30:18.999Z,0
2018-06-15T00:31:19.572Z,0
2018-06-15T00:32:20.150Z,0
2018-06-15T00:33:20.734Z,0
2018-06-15T00:34:21.309Z,0
2018-06-15T00:35:21.884Z,0
2018-06-15T00:36:22.468Z,0
2018-06-15T00:37:23.043Z,0
2018-06-15T00:38:23.618Z,0
2018-06-15T00:39:24.192Z,0
2018-06-15T00:40:24.766Z,0
2018-06-15T00:41:25.341Z,0
2018-06-15T00:42:25.915Z,0
2018-06-15T00:43:26.488Z,0
2018-06-15T00:44:27.065Z,0
2018-06-15T00:45:27.639Z,0
2018-06-15T00:46:28.215Z,0
2018-06-15T00:47:28.789Z,0
2018-06-15T00:48:29.363Z,0
2018-06-15T00:49:29.936Z,0
2018-06-15T00:50:30.511Z,0
2018-06-15T00:51:31.084Z,0
2018-06-15T00:52:31.658Z,0
2018-06-15T00:53:32.236Z,0
2018-06-15T00:54:32.807Z,0
2018-06-15T00:55:33.382Z,0
2018-06-15T00:56:33.960Z,0
2018-06-15T00:57:34.544Z,0
2018-06-15T00:58:35.133Z,0
2018-06-15T00:59:35.707Z,0
2018-06-15T01:00:36.279Z,0
2018-06-15T01:01:36.855Z,0
2018-06-15T01:02:37.430Z,0
2018-06-15T01:03:38.005Z,0
2018-06-15T01:04:38.579Z,0
2018-06-15T01:05:39.152Z,0
2018-06-15T01:06:39.725Z,0
2018-06-15T01:08:40.874Z,0
2018-06-15T01:09:41.449Z,0
2018-06-15T01:10:42.024Z,0
2018-06-15T01:11:42.599Z,0
2018-06-15T01:12:43.174Z,0
2018-06-15T01:13:43.748Z,0
2018-06-15T01:14:44.327Z,0
2018-06-15T01:15:44.893Z,0
2018-06-15T01:16:45.466Z,0
2018-06-15T01:17:46.053Z,0
2018-06-15T01:18:46.627Z,0
2018-06-15T01:19:47.213Z,0
2018-06-15T01:20:47.789Z,0
2018-06-15T01:21:48.364Z,0
2018-06-15T01:22:48.950Z,0
2018-06-15T01:23:49.524Z,0
2018-06-15T01:24:50.101Z,0
2018-06-15T01:25:50.675Z,0
2018-06-15T01:26:51.249Z,0
2018-06-15T01:27:51.834Z,0
2018-06-15T01:28:52.409Z,0
2018-06-15T01:29:52.984Z,0
2018-06-15T01:30:53.558Z,0
2018-06-15T01:31:54.130Z,0
2018-06-15T01:32:54.705Z,0
2018-06-15T01:33:55.279Z,0
2018-06-15T01:34:55.855Z,0
2018-06-15T01:35:56.429Z,0
2018-06-15T01:36:57.007Z,0
2018-06-15T01:37:57.591Z,0
2018-06-15T01:38:58.176Z,0
2018-06-15T01:39:58.751Z,0
2018-06-15T01:40:59.327Z,0
2018-06-15T01:41:59.901Z,0
2018-06-15T01:43:00.476Z,0
2018-06-15T01:44:01.051Z,0
2018-06-15T01:45:01.638Z,0
2018-06-15T01:46:02.213Z,0
2018-06-15T01:47:02.796Z,0
2018-06-15T01:48:03.379Z,0
2018-06-15T01:49:03.955Z,0
2018-06-15T01:50:04.529Z,0
2018-06-15T01:51:05.102Z,0
2018-06-15T01:52:05.678Z,0
2018-06-15T01:53:06.247Z,0
2018-06-15T01:54:06.833Z,0
2018-06-15T01:55:07.405Z,0
2018-06-15T01:56:07.978Z,0
2018-06-15T01:57:08.552Z,0
2018-06-15T01:58:09.126Z,0
2018-06-15T01:59:09.699Z,0
2018-06-15T02:00:10.272Z,0
2018-06-15T02:01:10.976Z,0
2018-06-15T02:02:11.428Z,0
2018-06-15T02:03:11.998Z,0
2018-06-15T02:04:12.571Z,0
2018-06-15T02:05:13.147Z,0
2018-06-15T02:06:13.731Z,0
2018-06-15T02:07:14.305Z,0
2018-06-15T02:08:14.880Z,0
2018-06-15T02:09:15.453Z,0
2018-06-15T02:10:16.026Z,0
2018-06-15T02:11:16.601Z,0
2018-06-15T02:12:17.173Z,0
2018-06-15T02:13:17.746Z,0
2018-06-15T02:14:18.319Z,0
2018-06-15T02:15:18.894Z,0
2018-06-15T02:16:19.468Z,0
2018-06-15T02:17:20.045Z,0
2018-06-15T02:18:20.617Z,0
2018-06-15T02:19:21.190Z,0
2018-06-15T02:20:21.767Z,0
2018-06-15T02:21:22.348Z,0
2018-06-15T02:22:22.922Z,0
2018-06-15T02:23:23.499Z,0
2018-06-15T02:24:24.078Z,0
2018-06-15T02:25:24.654Z,0
2018-06-15T02:26:25.228Z,0
2018-06-15T02:27:25.806Z,0
2018-06-15T02:28:26.377Z,0
2018-06-15T02:29:26.950Z,0
2018-06-15T02:30:27.527Z,0
2018-06-15T02:31:28.101Z,0
2018-06-15T02:32:28.681Z,0
2018-06-15T02:33:29.254Z,0
2018-06-15T02:34:29.830Z,0
2018-06-15T02:35:30.400Z,0
2018-06-15T02:36:30.973Z,0
2018-06-15T02:37:31.552Z,0
2018-06-15T02:38:32.132Z,0
2018-06-15T02:39:32.708Z,0
2018-06-15T02:40:33.282Z,0
2018-06-15T02:41:33.853Z,0
2018-06-15T02:42:34.427Z,0
2018-06-15T02:43:35.000Z,0
2018-06-15T02:44:35.573Z,0
2018-06-15T02:45:36.151Z,0
2018-06-15T02:46:36.730Z,0
2018-06-15T02:47:37.298Z,0
2018-06-15T02:48:37.873Z,0
2018-06-15T02:49:38.451Z,0
2018-06-15T02:50:39.019Z,0
2018-06-15T02:51:39.591Z,0
2018-06-15T02:52:40.163Z,0
2018-06-15T02:53:40.736Z,0
2018-06-15T02:54:41.315Z,0
2018-06-15T02:55:41.895Z,0
2018-06-15T02:56:42.478Z,0
2018-06-15T02:57:43.052Z,0
2018-06-15T02:58:43.630Z,0
2018-06-15T02:59:44.212Z,0
2018-06-15T03:00:44.797Z,0
2018-06-15T03:01:45.370Z,0
2018-06-15T03:02:45.944Z,0
2018-06-15T03:03:46.517Z,0
2018-06-15T03:04:47.092Z,0
2018-06-15T03:05:47.669Z,0
2018-06-15T03:06:48.257Z,0
2018-06-15T03:07:48.817Z,0
2018-06-15T03:08:49.387Z,0
2018-06-15T03:09:49.958Z,0
2018-06-15T03:10:50.534Z,0
2018-06-15T03:11:51.104Z,0
2018-06-15T03:12:51.676Z,0
2018-06-15T03:13:52.248Z,0
2018-06-15T03:14:52.835Z,0
2018-06-15T03:15:53.407Z,0
2018-06-15T03:16:53.980Z,0
2018-06-15T03:17:54.552Z,0
2018-06-15T03:18:55.127Z,0
2018-06-15T03:19:55.703Z,0
2018-06-15T03:20:56.279Z,0
2018-06-15T03:21:56.852Z,0
2018-06-15T03:22:57.426Z,0
2018-06-15T03:23:57.999Z,0
2018-06-15T03:24:58.574Z,0
2018-06-15T03:25:59.147Z,0
2018-06-15T03:26:59.721Z,0
2018-06-15T03:28:00.297Z,0
2018-06-15T03:29:00.870Z,0
2018-06-15T03:30:01.446Z,0
2018-06-15T03:31:02.032Z,0
2018-06-15T03:32:02.606Z,0
2018-06-15T03:33:03.182Z,0
2018-06-15T03:34:03.756Z,0
2018-06-15T03:35:04.329Z,0
2018-06-15T03:36:04.905Z,0
2018-06-15T03:37:05.481Z,0
2018-06-15T03:38:06.053Z,0
2018-06-15T03:39:06.626Z,0
2018-06-15T03:40:07.200Z,0
2018-06-15T03:41:07.773Z,0
2018-06-15T03:42:08.348Z,0
2018-06-15T03:43:08.920Z,0
2018-06-15T03:44:09.494Z,0
2018-06-15T03:45:10.070Z,0
2018-06-15T03:46:10.644Z,0
2018-06-15T03:47:11.220Z,0
2018-06-15T03:48:11.795Z,0
2018-06-15T03:49:12.378Z,0
2018-06-15T03:50:12.954Z,0
2018-06-15T03:51:13.538Z,0
2018-06-15T03:52:14.114Z,0
2018-06-15T03:53:14.689Z,0
2018-06-15T03:54:15.263Z,0
2018-06-15T03:55:15.837Z,0
2018-06-15T03:56:16.410Z,0
2018-06-15T03:57:16.985Z,0
2018-06-15T03:58:17.560Z,0
2018-06-15T03:59:18.135Z,0
2018-06-15T04:00:18.714Z,0
2018-06-15T04:01:19.282Z,0
2018-06-15T04:02:19.857Z,0
2018-06-15T04:03:20.429Z,0
2018-06-15T04:04:21.004Z,0
2018-06-15T04:05:21.579Z,0
2018-06-15T04:06:22.155Z,0
2018-06-15T04:07:22.730Z,0
2018-06-15T04:08:23.304Z,0
2018-06-15T04:09:23.877Z,0
2018-06-15T04:10:24.451Z,0
2018-06-15T04:11:25.039Z,0
2018-06-15T04:12:25.613Z,0
2018-06-15T04:13:26.187Z,0
2018-06-15T04:14:26.761Z,0
2018-06-15T04:15:27.336Z,0
2018-06-15T04:16:27.912Z,0
2018-06-15T04:17:28.486Z,0
2018-06-15T04:18:29.062Z,0
2018-06-15T04:19:29.635Z,0
2018-06-15T04:20:30.209Z,0
2018-06-15T04:21:30.783Z,0
2018-06-15T04:22:31.359Z,0
2018-06-15T04:23:31.933Z,0
2018-06-15T04:24:32.519Z,0
2018-06-15T04:25:33.095Z,0
2018-06-15T04:26:33.669Z,0
2018-06-15T04:27:34.244Z,0
2018-06-15T04:28:34.818Z,0
2018-06-15T04:29:35.391Z,0
2018-06-15T04:30:35.965Z,0
2018-06-15T04:31:36.539Z,0
2018-06-15T04:32:37.124Z,0
2018-06-15T04:33:37.698Z,0
2018-06-15T04:34:38.272Z,0
2018-06-15T04:35:38.846Z,5
2018-06-15T04:36:39.421Z,5
2018-06-15T04:37:39.998Z,5
2018-06-15T04:38:40.572Z,5
2018-06-15T04:39:41.148Z,5
2018-06-15T04:40:41.722Z,5
2018-06-15T04:41:42.298Z,5
2018-06-15T04:42:42.875Z,5
2018-06-15T04:43:43.451Z,5
2018-06-15T04:44:44.026Z,5
2018-06-15T04:45:44.603Z,5
2018-06-15T04:46:45.182Z,5
2018-06-15T04:47:45.759Z,5
2018-06-15T04:48:46.342Z,5
2018-06-15T04:49:46.920Z,5
2018-06-15T04:50:47.494Z,5
2018-06-15T04:51:48.070Z,5
2018-06-15T04:52:48.656Z,5
2018-06-15T04:53:49.233Z,5
2018-06-15T04:54:49.807Z,5
2018-06-15T04:55:50.394Z,5
2018-06-15T04:56:50.970Z,5
2018-06-15T04:57:51.561Z,5
2018-06-15T04:58:52.131Z,5
2018-06-15T04:59:52.718Z,5
2018-06-15T05:00:53.294Z,5
2018-06-15T05:01:53.869Z,5
2018-06-15T05:02:54.444Z,5
2018-06-15T05:03:55.021Z,5
2018-06-15T05:04:55.597Z,5
2018-06-15T05:05:56.175Z,5
2018-06-15T05:06:56.749Z,5
2018-06-15T05:07:57.324Z,5
2018-06-15T05:08:57.900Z,5
2018-06-15T05:09:58.476Z,10
2018-06-15T05:10:59.056Z,10
2018-06-15T05:11:59.633Z,10
2018-06-15T05:13:00.212Z,10
2018-06-15T05:14:00.787Z,10
2018-06-15T05:15:01.366Z,10
2018-06-15T05:16:01.941Z,10
2018-06-15T05:17:02.517Z,10
2018-06-15T05:18:03.094Z,10
2018-06-15T05:19:03.673Z,10
2018-06-15T05:20:04.248Z,10
2018-06-15T05:21:04.829Z,10
2018-06-15T05:22:05.404Z,10
2018-06-15T05:23:05.981Z,10
2018-06-15T05:24:06.562Z,10
2018-06-15T05:25:07.135Z,10
2018-06-15T05:26:07.713Z,15
2018-06-15T05:27:08.291Z,10
2018-06-15T05:28:08.869Z,15
2018-06-15T05:29:09.446Z,15
2018-06-15T05:30:10.024Z,15
2018-06-15T05:31:10.599Z,15
2018-06-15T05:32:11.178Z,15
2018-06-15T05:33:11.755Z,10
2018-06-15T05:34:12.332Z,10
2018-06-15T05:35:12.942Z,10
2018-06-15T05:36:13.495Z,10
2018-06-15T05:37:14.073Z,10
2018-06-15T05:38:14.651Z,5
2018-06-15T05:39:15.226Z,5
2018-06-15T05:40:15.802Z,5
2018-06-15T05:41:16.379Z,5
2018-06-15T05:42:16.956Z,5
2018-06-15T05:43:17.538Z,5
2018-06-15T05:44:18.110Z,10
2018-06-15T05:45:18.687Z,10
2018-06-15T05:46:19.266Z,10
2018-06-15T05:47:19.843Z,10
2018-06-15T05:48:20.421Z,10
2018-06-15T05:49:20.997Z,10
2018-06-15T05:50:21.575Z,10
2018-06-15T05:51:22.153Z,10
2018-06-15T05:52:22.731Z,10
2018-06-15T05:53:23.307Z,15
2018-06-15T05:54:23.896Z,15
2018-06-15T05:55:24.473Z,15
2018-06-15T05:56:25.061Z,15
2018-06-15T05:57:25.640Z,15
2018-06-15T05:58:26.227Z,15
2018-06-15T05:59:26.804Z,15
2018-06-15T06:00:27.382Z,15
2018-06-15T06:01:27.961Z,15
2018-06-15T06:02:28.550Z,15
2018-06-15T06:03:29.128Z,15
2018-06-15T06:04:29.705Z,15
2018-06-15T06:05:30.284Z,15
2018-06-15T06:06:30.861Z,15
2018-06-15T06:07:31.442Z,15
2018-06-15T06:08:32.019Z,15
2018-06-15T06:09:32.595Z,15
2018-06-15T06:10:33.173Z,15
2018-06-15T06:11:33.752Z,15
2018-06-15T06:12:34.339Z,15
2018-06-15T06:13:34.919Z,15
2018-06-15T06:14:35.495Z,15
2018-06-15T06:15:36.073Z,15
2018-06-15T06:16:36.650Z,15
2018-06-15T06:17:37.227Z,15
2018-06-15T06:18:37.806Z,15
2018-06-15T06:19:38.383Z,15
2018-06-15T06:20:38.960Z,15
2018-06-15T06:21:39.540Z,15
2018-06-15T06:22:40.129Z,20
2018-06-15T06:23:40.707Z,20
2018-06-15T06:24:41.287Z,25
2018-06-15T06:25:41.863Z,25
2018-06-15T06:26:42.450Z,25
2018-06-15T06:27:43.021Z,25
2018-06-15T06:28:43.599Z,25
2018-06-15T06:29:44.180Z,25
2018-06-15T06:30:44.755Z,20
2018-06-15T06:31:45.333Z,20
2018-06-15T06:32:45.914Z,25
2018-06-15T06:33:46.491Z,25
2018-06-15T06:34:47.069Z,25
2018-06-15T06:35:47.650Z,25
2018-06-15T06:36:48.229Z,25
2018-06-15T06:37:48.824Z,20
2018-06-15T06:38:49.382Z,25
2018-06-15T06:39:49.960Z,25
2018-06-15T06:40:50.540Z,20
2018-06-15T06:41:51.118Z,20
2018-06-15T06:42:51.696Z,25
2018-06-15T06:43:52.390Z,25
2018-06-15T06:44:52.862Z,25
2018-06-15T06:45:53.452Z,25
2018-06-15T06:46:54.030Z,20
2018-06-15T06:47:54.609Z,25
2018-06-15T06:48:55.187Z,25
2018-06-15T06:49:55.766Z,25
2018-06-15T06:50:56.353Z,20
2018-06-15T06:51:56.932Z,25
2018-06-15T06:52:57.510Z,25
2018-06-15T06:53:58.090Z,25
2018-06-15T06:54:58.668Z,20
2018-06-15T06:55:59.248Z,20
2018-06-15T06:56:59.826Z,20
2018-06-15T06:58:00.404Z,20
2018-06-15T06:59:00.984Z,20
2018-06-15T07:00:01.562Z,20
2018-06-15T07:01:02.140Z,20
2018-06-15T07:02:02.718Z,20
2018-06-15T07:03:03.296Z,20
2018-06-15T07:04:03.876Z,20
2018-06-15T07:05:04.456Z,20
2018-06-15T07:06:05.033Z,25
2018-06-15T07:07:05.616Z,20
2018-06-15T07:08:06.193Z,20
2018-06-15T07:09:06.781Z,20
2018-06-15T07:10:07.370Z,25
2018-06-15T07:11:07.950Z,30
2018-06-15T07:12:08.534Z,30
2018-06-15T07:13:09.136Z,30
2018-06-15T07:14:09.690Z,30
2018-06-15T07:15:10.268Z,30
2018-06-15T07:16:10.850Z,30
2018-06-15T07:17:11.427Z,30
2018-06-15T07:18:12.006Z,30
2018-06-15T07:19:12.587Z,30
2018-06-15T07:20:13.165Z,30
2018-06-15T07:21:13.743Z,30
2018-06-15T07:22:14.322Z,30
2018-06-15T07:23:14.940Z,25
2018-06-15T07:24:15.481Z,30
2018-06-15T07:25:16.069Z,20
2018-06-15T07:26:16.652Z,20
2018-06-15T07:27:17.226Z,25
2018-06-15T07:28:17.805Z,30
2018-06-15T07:29:18.383Z,25
2018-06-15T07:30:18.965Z,30
2018-06-15T07:31:19.545Z,30
2018-06-15T07:32:20.135Z,30
2018-06-15T07:33:20.715Z,30
2018-06-15T07:34:21.292Z,30
2018-06-15T07:35:21.872Z,30
2018-06-15T07:36:22.454Z,35
2018-06-15T07:37:23.031Z,30
2018-06-15T07:38:23.610Z,35
2018-06-15T07:39:24.191Z,35
2018-06-15T07:40:24.769Z,25
2018-06-15T07:41:25.348Z,30
2018-06-15T07:42:25.927Z,35
2018-06-15T07:43:26.508Z,35
2018-06-15T07:44:27.100Z,35
2018-06-15T07:45:27.678Z,25
2018-06-15T07:46:28.257Z,25
2018-06-15T07:47:28.838Z,25
2018-06-15T07:48:29.415Z,35
2018-06-15T07:49:29.995Z,35
2018-06-15T07:50:30.589Z,35
2018-06-15T07:51:31.169Z,30
2018-06-15T07:52:31.800Z,25
2018-06-15T07:53:32.325Z,25
2018-06-15T07:54:32.903Z,30
2018-06-15T07:55:33.483Z,30
2018-06-15T07:56:34.064Z,30
2018-06-15T07:57:34.643Z,30
2018-06-15T07:58:35.222Z,30
2018-06-15T07:59:35.853Z,30
2018-06-15T08:00:36.382Z,30
2018-06-15T08:01:36.960Z,30
2018-06-15T08:02:37.552Z,30
2018-06-15T08:03:38.132Z,30
2018-06-15T08:04:38.723Z,30
2018-06-15T08:05:39.303Z,30
2018-06-15T08:06:39.886Z,25
2018-06-15T08:07:40.465Z,25
2018-06-15T08:08:41.057Z,25
2018-06-15T08:09:41.637Z,25
2018-06-15T08:10:42.217Z,25
2018-06-15T08:11:42.807Z,25
2018-06-15T08:12:43.389Z,25
2018-06-15T08:13:43.968Z,25
2018-06-15T08:14:44.546Z,25
2018-06-15T08:15:45.131Z,20
2018-06-15T08:16:45.707Z,20
2018-06-15T08:17:46.287Z,20
2018-06-15T08:18:46.865Z,20
2018-06-15T08:19:47.445Z,25
2018-06-15T08:20:48.026Z,25
2018-06-15T08:21:48.605Z,30
2018-06-15T08:22:49.185Z,25
2018-06-15T08:23:49.766Z,25
2018-06-15T08:24:50.349Z,35
2018-06-15T08:25:50.938Z,30
2018-06-15T08:26:51.518Z,25
2018-06-15T08:27:52.160Z,25
2018-06-15T08:28:52.676Z,30
2018-06-15T08:29:53.256Z,35
2018-06-15T08:30:53.836Z,25
2018-06-15T08:31:54.416Z,30
2018-06-15T08:32:55.009Z,35
2018-06-15T08:33:55.588Z,30
2018-06-15T08:34:56.169Z,25
2018-06-15T08:35:56.752Z,25
2018-06-15T08:36:57.330Z,25
2018-06-15T08:37:57.922Z,25
2018-06-15T08:38:58.503Z,25
2018-06-15T08:39:59.081Z,25
2018-06-15T08:40:59.662Z,25
2018-06-15T08:42:00.243Z,25
2018-06-15T08:43:00.822Z,30
2018-06-15T08:44:01.403Z,30
2018-06-15T08:45:01.987Z,30
2018-06-15T08:46:02.578Z,30
2018-06-15T08:47:03.169Z,35
2018-06-15T08:48:03.747Z,30
2018-06-15T08:51:14.065Z,30
2018-06-15T08:52:14.649Z,30
2018-06-15T08:53:15.242Z,30
2018-06-15T08:54:15.824Z,30
2018-06-15T08:55:16.411Z,30
2018-06-15T08:56:16.990Z,35
2018-06-15T08:57:17.582Z,35
2018-06-15T08:58:18.161Z,35
2018-06-15T08:59:18.741Z,35
2018-06-15T09:00:19.324Z,30
2018-06-15T09:01:19.915Z,30
2018-06-15T09:02:20.496Z,30
2018-06-15T09:03:21.077Z,30
2018-06-15T09:04:21.658Z,30
2018-06-15T09:05:22.246Z,30
2018-06-15T09:06:22.824Z,40
2018-06-15T09:07:23.404Z,45
2018-06-15T09:08:23.995Z,35
2018-06-15T09:09:24.573Z,45
2018-06-15T09:10:25.156Z,45
2018-06-15T09:11:25.738Z,50
2018-06-15T09:12:26.321Z,50
2018-06-15T09:13:26.909Z,40
2018-06-15T09:14:27.488Z,35
2018-06-15T09:15:28.068Z,35
2018-06-15T09:16:28.651Z,35
2018-06-15T09:17:29.230Z,35
2018-06-15T09:18:29.811Z,35
2018-06-15T09:19:30.395Z,50
2018-06-15T09:20:30.974Z,40
2018-06-15T09:21:31.554Z,50
2018-06-15T09:22:32.134Z,40
2018-06-15T09:23:32.717Z,50
2018-06-15T09:24:33.301Z,50
2018-06-15T09:25:33.883Z,50
2018-06-15T09:26:34.462Z,40
2018-06-15T09:27:35.045Z,40
2018-06-15T09:28:35.626Z,40
2018-06-15T09:29:36.206Z,30
2018-06-15T09:30:36.787Z,40
2018-06-15T09:31:37.367Z,30
2018-06-15T09:32:37.976Z,30
2018-06-15T09:33:38.537Z,30
2018-06-15T09:34:39.118Z,30
2018-06-15T09:35:39.699Z,30
2018-06-15T09:36:40.276Z,30
2018-06-15T09:37:40.856Z,30
2018-06-15T09:38:41.436Z,40
2018-06-15T09:39:42.016Z,30
2018-06-15T09:40:42.595Z,30
2018-06-15T09:41:43.177Z,30
2018-06-15T09:42:43.757Z,30
2018-06-15T09:43:44.339Z,30
2018-06-15T09:44:44.922Z,30
2018-06-15T09:45:45.501Z,30
2018-06-15T09:46:46.082Z,25
2018-06-15T09:47:46.673Z,25
2018-06-15T09:48:47.254Z,25
2018-06-15T09:49:47.835Z,25
2018-06-15T09:50:48.413Z,25
2018-06-15T09:51:49.005Z,25
2018-06-15T09:52:49.639Z,25
2018-06-15T09:53:50.171Z,25
2018-06-15T09:54:50.747Z,25
2018-06-15T09:55:51.328Z,25
2018-06-15T09:56:51.908Z,25
2018-06-15T09:57:52.491Z,25
2018-06-15T09:58:53.074Z,25
2018-06-15T09:59:53.654Z,25
2018-06-15T10:00:54.234Z,25
2018-06-15T10:01:54.826Z,25
2018-06-15T10:02:55.409Z,25
2018-06-15T10:03:55.990Z,30
2018-06-15T10:04:56.574Z,30
2018-06-15T10:05:57.152Z,30
2018-06-15T10:06:57.744Z,30
2018-06-15T10:07:58.327Z,30
2018-06-15T10:08:58.916Z,30
2018-06-15T10:09:59.496Z,30
2018-06-15T10:11:00.078Z,30
2018-06-15T10:12:00.660Z,30
2018-06-15T10:13:01.244Z,40
2018-06-15T10:14:01.833Z,40
2018-06-15T10:15:02.415Z,35
2018-06-15T10:16:02.999Z,40
2018-06-15T10:17:03.587Z,45
2018-06-15T10:18:04.168Z,35
2018-06-15T10:19:04.801Z,45
2018-06-15T10:20:05.382Z,35
2018-06-15T10:21:05.964Z,45
2018-06-15T10:22:06.557Z,45
2018-06-15T10:23:07.141Z,50
2018-06-15T10:24:07.722Z,50
2018-06-15T10:25:08.305Z,50
2018-06-15T10:26:08.887Z,50
2018-06-15T10:27:09.509Z,50
2018-06-15T10:28:10.052Z,50
2018-06-15T10:29:10.647Z,50
2018-06-15T10:30:11.230Z,35
2018-06-15T10:31:11.810Z,35
2018-06-15T10:32:12.390Z,35
2018-06-15T10:33:12.973Z,35
2018-06-15T10:34:13.553Z,50
2018-06-15T10:35:14.137Z,50
2018-06-15T10:36:14.719Z,50
2018-06-15T10:37:15.300Z,50
2018-06-15T10:38:15.884Z,50
2018-06-15T10:39:16.482Z,50
2018-06-15T10:40:17.052Z,45
2018-06-15T10:41:17.633Z,25
2018-06-15T10:42:18.216Z,30
2018-06-15T10:43:18.795Z,30
2018-06-15T10:44:19.378Z,40
2018-06-15T10:45:19.957Z,55
2018-06-15T10:46:20.537Z,50
2018-06-15T10:47:21.130Z,50
2018-06-15T10:48:21.713Z,50
2018-06-15T10:49:22.295Z,50
2018-06-15T10:50:22.877Z,50
2018-06-15T10:51:23.459Z,50
2018-06-15T10:52:24.041Z,50
2018-06-15T10:53:24.625Z,50
2018-06-15T10:54:25.219Z,50
2018-06-15T10:55:25.799Z,40
2018-06-15T10:56:26.382Z,50
2018-06-15T10:57:26.967Z,50
2018-06-15T10:58:27.549Z,50
2018-06-15T10:59:28.129Z,50
2018-06-15T11:00:28.714Z,50
2018-06-15T11:01:29.316Z,50
2018-06-15T11:02:29.888Z,50
2018-06-15T11:03:30.473Z,50
2018-06-15T11:04:31.051Z,30
2018-06-15T11:05:31.631Z,40
2018-06-15T11:06:32.216Z,50
2018-06-15T11:07:32.798Z,50
2018-06-15T11:08:33.389Z,50
2018-06-15T11:09:33.975Z,50
2018-06-15T11:10:34.571Z,50
2018-06-15T11:11:35.150Z,50
2018-06-15T11:12:35.734Z,45
2018-06-15T11:13:36.317Z,35
2018-06-15T11:14:36.898Z,40
2018-06-15T11:15:37.480Z,50
2018-06-15T11:16:38.062Z,35
2018-06-15T11:17:38.644Z,45
2018-06-15T11:18:39.237Z,50
2018-06-15T11:19:39.822Z,50
2018-06-15T11:20:40.404Z,50
2018-06-15T11:21:40.988Z,50
2018-06-15T11:22:41.574Z,50
2018-06-15T11:23:42.168Z,45
2018-06-15T11:24:42.750Z,50
2018-06-15T11:25:43.334Z,50
2018-06-15T11:26:43.918Z,50
2018-06-15T11:27:44.502Z,50
2018-06-15T11:28:45.094Z,50
2018-06-15T11:29:45.687Z,50
2018-06-15T11:30:46.271Z,50
2018-06-15T11:31:46.854Z,45
2018-06-15T11:32:47.439Z,45
2018-06-15T11:33:48.024Z,40
2018-06-15T11:34:48.606Z,45
2018-06-15T11:35:49.195Z,45
2018-06-15T11:36:49.783Z,30
2018-06-15T11:37:50.367Z,30
2018-06-15T11:38:50.958Z,40
2018-06-15T11:39:51.542Z,50
2018-06-15T11:40:52.127Z,50
2018-06-15T11:41:52.711Z,45
2018-06-15T11:42:53.296Z,50
2018-06-15T11:43:53.884Z,50
2018-06-15T11:44:54.468Z,50
2018-06-15T11:45:55.050Z,50
2018-06-15T11:46:55.633Z,45
2018-06-15T11:47:56.217Z,45
2018-06-15T11:48:56.810Z,45
2018-06-15T11:49:57.395Z,45
2018-06-15T11:50:57.989Z,45
2018-06-15T11:51:58.577Z,35
2018-06-15T11:52:59.167Z,35
2018-06-15T11:53:59.747Z,25
2018-06-15T11:55:00.331Z,30
2018-06-15T11:56:00.912Z,30
2018-06-15T11:57:01.498Z,45
2018-06-15T11:58:02.082Z,30
2018-06-15T11:59:02.665Z,30
2018-06-15T12:00:03.247Z,25
2018-06-15T12:01:03.826Z,25
2018-06-15T12:02:04.408Z,30
2018-06-15T12:03:04.991Z,30
2018-06-15T12:04:05.573Z,35
2018-06-15T12:05:06.156Z,30
2018-06-15T12:06:06.749Z,35
2018-06-15T12:07:07.334Z,40
2018-06-15T12:08:07.914Z,35
2018-06-15T12:09:08.497Z,35
2018-06-15T12:10:09.089Z,35
2018-06-15T12:11:09.671Z,35
2018-06-15T12:12:10.257Z,45
2018-06-15T12:13:10.846Z,35
2018-06-15T12:14:11.429Z,50
2018-06-15T12:15:12.014Z,50
2018-06-15T12:16:12.608Z,45
2018-06-15T12:17:13.203Z,50
2018-06-15T12:18:13.777Z,50
2018-06-15T12:19:14.361Z,50
2018-06-15T12:20:14.945Z,50
2018-06-15T12:21:15.528Z,45
2018-06-15T12:22:16.111Z,50
2018-06-15T12:23:16.697Z,45
2018-06-15T12:24:17.276Z,35
2018-06-15T12:25:17.859Z,35
2018-06-15T12:26:18.444Z,35
2018-06-15T12:27:19.026Z,35
2018-06-15T12:28:19.608Z,35
2018-06-15T12:29:20.192Z,35
2018-06-15T12:30:20.775Z,45
2018-06-15T12:31:21.359Z,50
2018-06-15T12:32:21.940Z,50
2018-06-15T12:33:22.525Z,50
2018-06-15T12:34:23.116Z,50
2018-06-15T12:35:23.695Z,50
2018-06-15T12:36:24.277Z,50
2018-06-15T12:37:24.863Z,50
2018-06-15T12:38:25.447Z,50
2018-06-15T12:39:26.031Z,50
2018-06-15T12:40:26.619Z,50
2018-06-15T12:41:27.261Z,50
2018-06-15T12:42:27.843Z,50
2018-06-15T12:43:28.427Z,50
2018-06-15T12:44:29.010Z,50
2018-06-15T12:45:29.594Z,50
2018-06-15T12:46:30.179Z,50
2018-06-15T12:47:30.775Z,50
2018-06-15T12:48:31.358Z,50
2018-06-15T12:49:31.941Z,50
2018-06-15T12:50:32.525Z,50
2018-06-15T12:51:33.110Z,50
2018-06-15T12:52:33.691Z,50
2018-06-15T12:53:34.274Z,50
2018-06-15T12:54:34.859Z,50
2018-06-15T12:55:35.446Z,50
2018-06-15T12:56:36.029Z,50
2018-06-15T12:57:36.625Z,50
2018-06-15T12:58:37.220Z,50
2018-06-15T12:59:37.802Z,50
2018-06-15T13:00:38.405Z,50
2018-06-15T13:01:38.987Z,50
2018-06-15T13:02:39.571Z,50
2018-06-15T13:03:40.154Z,50
2018-06-15T13:04:40.741Z,50
2018-06-15T13:05:41.322Z,50
2018-06-15T13:06:41.916Z,50
2018-06-15T13:07:42.499Z,50
2018-06-15T13:08:43.082Z,50
2018-06-15T13:09:43.678Z,50
2018-06-15T13:10:44.264Z,50
2018-06-15T13:11:44.859Z,50
2018-06-15T13:12:45.443Z,50
2018-06-15T13:13:46.027Z,50
2018-06-15T13:14:46.610Z,50
2018-06-15T13:15:47.194Z,50
2018-06-15T13:16:47.780Z,50
2018-06-15T13:17:48.382Z,50
2018-06-15T13:18:48.947Z,35
2018-06-15T13:19:49.530Z,30
2018-06-15T13:20:50.113Z,30
2018-06-15T13:21:50.696Z,40
2018-06-15T13:22:51.281Z,45
2018-06-15T13:23:51.903Z,45
2018-06-15T13:24:52.458Z,50
2018-06-15T13:25:53.043Z,55
2018-06-15T13:26:53.626Z,50
2018-06-15T13:27:54.211Z,45
2018-06-15T13:28:54.797Z,50
2018-06-15T13:29:55.379Z,40
2018-06-15T13:30:55.963Z,40
2018-06-15T13:31:56.547Z,35
2018-06-15T13:32:57.177Z,35
2018-06-15T13:33:57.716Z,35
2018-06-15T13:34:58.300Z,40
2018-06-15T13:35:58.885Z,40
2018-06-15T13:36:59.471Z,40
2018-06-15T13:38:00.053Z,45
2018-06-15T13:39:00.637Z,50
2018-06-15T13:40:01.221Z,45
2018-06-15T13:41:01.807Z,55
2018-06-15T13:42:02.388Z,55
2018-06-15T13:43:02.972Z,50
2018-06-15T13:44:03.559Z,55
2018-06-15T13:45:04.141Z,55
2018-06-15T13:46:04.725Z,55
2018-06-15T13:47:05.310Z,55
2018-06-15T13:48:05.905Z,55
2018-06-15T13:49:06.489Z,55
2018-06-15T13:50:07.072Z,55
2018-06-15T13:51:07.713Z,55
2018-06-15T13:52:08.297Z,55
2018-06-15T13:53:08.882Z,55
2018-06-15T13:54:09.465Z,55
2018-06-15T13:55:10.050Z,55
2018-06-15T13:56:10.633Z,55
2018-06-15T13:57:11.218Z,55
2018-06-15T13:58:11.800Z,55
2018-06-15T13:59:12.384Z,55
2018-06-15T14:00:12.972Z,55
2018-06-15T14:01:13.553Z,55
2018-06-15T14:02:14.149Z,55
2018-06-15T14:03:14.733Z,55
2018-06-15T14:04:15.326Z,40
2018-06-15T14:05:15.910Z,40
2018-06-15T14:06:16.495Z,45
2018-06-15T14:07:17.080Z,40
2018-06-15T14:08:17.666Z,40
2018-06-15T14:09:18.249Z,45
2018-06-15T14:10:18.832Z,55
2018-06-15T14:11:19.414Z,60
2018-06-15T14:12:19.999Z,60
2018-06-15T14:13:20.584Z,60
2018-06-15T14:14:21.167Z,60
2018-06-15T14:15:21.752Z,60
2018-06-15T14:16:22.336Z,55
2018-06-15T14:17:22.919Z,35
2018-06-15T14:18:23.504Z,35
2018-06-15T14:19:24.090Z,30
2018-06-15T14:20:24.672Z,30
2018-06-15T14:21:25.256Z,30
2018-06-15T14:22:25.842Z,30
2018-06-15T14:23:26.437Z,35
2018-06-15T14:24:27.021Z,35
2018-06-15T14:25:27.616Z,40
2018-06-15T14:26:28.201Z,55
2018-06-15T14:27:28.784Z,70
2018-06-15T14:28:29.368Z,70
2018-06-15T14:29:29.961Z,70
2018-06-15T14:30:30.556Z,65
2018-06-15T14:31:31.148Z,60
2018-06-15T14:32:31.739Z,60
2018-06-15T14:33:32.322Z,60
2018-06-15T14:34:32.904Z,60
2018-06-15T14:35:33.490Z,55
2018-06-15T14:36:34.081Z,35
2018-06-15T14:37:34.664Z,30
2018-06-15T14:38:35.248Z,30
2018-06-15T14:39:35.841Z,30
2018-06-15T14:40:36.456Z,30
2018-06-15T14:41:37.008Z,45
2018-06-15T14:42:37.591Z,45
2018-06-15T14:43:38.177Z,40
2018-06-15T14:44:38.761Z,35
2018-06-15T14:45:39.359Z,45
2018-06-15T14:46:39.961Z,45
2018-06-15T14:47:40.527Z,55
2018-06-15T14:48:41.110Z,45
2018-06-15T14:49:41.696Z,45
2018-06-15T14:50:42.284Z,35